createdAt,value
2018-01-19T00:04:47.245Z,94496
2018-01-19T00:10:15.439Z,94496
2018-01-19T00:15:44.403Z,94494
2018-01-19T00:21:19.707Z,94503
2018-01-19T00:26:47.889Z,94523
2018-01-19T00:32:16.864Z,94517
2018-01-19T00:37:45.096Z,94485
2018-01-19T00:43:13.302Z,94483
2018-01-19T00:48:41.506Z,94475
2018-01-19T00:54:10.475Z,94492
2018-01-19T00:59:38.725Z,94498
2018-01-19T01:05:06.921Z,94502
2018-01-19T01:10:35.110Z,94491
2018-01-19T01:16:04.511Z,94499
2018-01-19T01:21:32.725Z,94519
2018-01-19T01:27:01.158Z,94514
2018-01-19T01:32:29.341Z,94504
2018-01-19T01:37:57.521Z,94502
2018-01-19T01:43:26.724Z,94494
2018-01-19T01:49:11.983Z,94507
2018-01-19T01:54:40.161Z,94487
2018-01-19T02:00:08.490Z,94470
2018-01-19T02:05:36.717Z,94508
2018-01-19T02:11:05.226Z,94472
2018-01-19T02:16:34.490Z,94453
2018-01-19T02:22:02.742Z,94467
2018-01-19T02:27:30.937Z,94447
2018-01-19T02:32:59.121Z,94447
2018-01-19T02:38:27.312Z,94453
2018-01-19T02:43:56.461Z,94439
2018-01-19T02:49:28.609Z,94451
2018-01-19T02:54:56.788Z,94450
2018-01-19T03:00:25.744Z,94458
2018-01-19T03:06:07.150Z,94448
2018-01-19T03:11:36.143Z,94452
2018-01-19T03:17:04.368Z,94453
2018-01-19T03:22:32.635Z,94452
2018-01-19T03:28:01.584Z,94448
2018-01-19T03:33:30.545Z,94475
2018-01-19T03:39:00.987Z,94461
2018-01-19T03:44:29.272Z,94456
2018-01-19T03:49:58.392Z,94459
2018-01-19T03:55:26.731Z,94465
2018-01-19T04:00:54.927Z,94476
2018-01-19T04:06:23.144Z,94478
2018-01-19T04:12:17.043Z,94470
2018-01-19T04:17:45.256Z,94490
2018-01-19T04:23:14.227Z,94500
2018-01-19T04:28:42.401Z,94513
2018-01-19T04:34:10.619Z,94509
2018-01-19T04:39:43.016Z,94516
2018-01-19T04:45:12.048Z,94527
2018-01-19T04:50:46.933Z,94529
2018-01-19T04:56:15.350Z,94512
2018-01-19T05:01:43.521Z,94522
2018-01-19T05:07:11.913Z,94521
2018-01-19T05:12:54.508Z,94570
2018-01-19T05:18:22.693Z,94571
2018-01-19T05:23:53.581Z,94590
2018-01-19T05:29:22.628Z,94593
2018-01-19T05:34:51.255Z,94611
2018-01-19T05:40:19.560Z,94617
2018-01-19T05:45:47.753Z,94645
2018-01-19T05:51:16.715Z,94639
2018-01-19T05:56:52.088Z,94666
2018-01-19T06:02:21.067Z,94658
2018-01-19T06:07:49.263Z,94662
2018-01-19T06:13:17.466Z,94661
2018-01-19T06:18:46.417Z,94651
2018-01-19T06:24:15.393Z,94658
2018-01-19T06:29:43.578Z,94697
2018-01-19T06:35:12.517Z,94696
2018-01-19T06:40:41.493Z,94702
2018-01-19T06:46:09.776Z,94714
2018-01-19T06:51:38.801Z,94739
2018-01-19T06:57:07.829Z,94769
2018-01-19T07:02:37.571Z,94785
2018-01-19T07:08:05.780Z,94788
2018-01-19T07:13:34.025Z,94800
2018-01-19T07:19:02.821Z,94806
2018-01-19T07:24:31.060Z,94834
2018-01-19T07:29:59.239Z,94839
2018-01-19T07:35:27.431Z,94848
2018-01-19T07:40:55.621Z,94869
2018-01-19T07:46:23.823Z,94872
2018-01-19T07:51:52.031Z,94893
2018-01-19T07:57:20.213Z,94906
2018-01-19T08:02:48.439Z,94922
2018-01-19T08:08:16.647Z,94940
2018-01-19T08:13:44.887Z,94960
2018-01-19T08:19:13.133Z,94962
2018-01-19T08:24:41.342Z,94992
2018-01-19T08:30:10.323Z,95008
2018-01-19T08:35:38.530Z,95002
2018-01-19T08:41:17.313Z,95017
2018-01-19T08:46:45.506Z,95024
2018-01-19T08:52:13.714Z,95029
2018-01-19T08:57:42.672Z,95026
2018-01-19T09:03:10.854Z,95038
2018-01-19T09:08:39.050Z,95044
2018-01-19T09:14:07.253Z,95053
2018-01-19T09:19:35.535Z,95054
2018-01-19T09:25:04.528Z,95056
2018-01-19T09:30:33.048Z,95078
2018-01-19T09:36:01.267Z,95088
2018-01-19T09:41:29.491Z,95083
2018-01-19T09:46:57.673Z,95109
2018-01-19T09:52:25.884Z,95124
2018-01-19T09:57:54.866Z,95109
2018-01-19T10:03:23.045Z,95117
2018-01-19T10:08:52.016Z,95130
2018-01-19T10:14:20.222Z,95128
2018-01-19T10:19:48.407Z,95115
2018-01-19T10:25:16.591Z,95115
2018-01-19T10:30:48.233Z,95096
2018-01-19T10:36:16.403Z,95123
2018-01-19T10:41:44.615Z,95117
2018-01-19T10:47:12.801Z,95117
2018-01-19T10:52:41.771Z,95100
2018-01-19T10:58:09.945Z,95124
2018-01-19T11:03:38.151Z,95117
2018-01-19T11:09:06.378Z,95113
2018-01-19T11:14:35.413Z,95100
2018-01-19T11:20:03.673Z,95098
2018-01-19T11:25:31.867Z,95098
2018-01-19T11:31:00.173Z,95102
2018-01-19T11:36:28.400Z,95103
2018-01-19T11:41:56.624Z,95099
2018-01-19T11:47:24.819Z,95094
2018-01-19T11:52:53.052Z,95095
2018-01-19T11:58:21.553Z,95077
2018-01-19T12:03:49.735Z,95089
2018-01-19T12:09:17.929Z,95089
2018-01-19T12:14:46.334Z,95090
2018-01-19T12:20:14.549Z,95080
2018-01-19T12:25:43.523Z,95080
2018-01-19T12:31:11.731Z,95086
2018-01-19T12:36:40.617Z,95079
2018-01-19T12:42:09.600Z,95072
2018-01-19T12:47:37.793Z,95067
2018-01-19T12:53:06.011Z,95068
2018-01-19T12:58:34.260Z,95053
2018-01-19T13:04:02.478Z,95062
2018-01-19T13:09:30.748Z,95042
2018-01-19T13:14:59.701Z,95038
2018-01-19T13:20:35.775Z,95053
2018-01-19T13:26:04.011Z,95047
2018-01-19T13:31:32.206Z,95033
2018-01-19T13:37:00.439Z,95048
2018-01-19T13:42:28.649Z,95064
2018-01-19T13:47:56.846Z,95036
2018-01-19T13:53:25.057Z,95038
2018-01-19T13:58:53.278Z,95035
2018-01-19T14:04:21.484Z,95037
2018-01-19T14:09:49.692Z,95051
2018-01-19T14:15:18.641Z,95037
2018-01-19T14:20:46.851Z,95054
2018-01-19T14:26:15.799Z,95059
2018-01-19T14:31:43.993Z,95046
2018-01-19T14:37:12.169Z,95047
2018-01-19T14:42:40.410Z,95058
2018-01-19T14:48:08.649Z,95050
2018-01-19T14:53:36.844Z,95059
2018-01-19T14:59:05.110Z,95058
2018-01-19T15:04:34.374Z,95044
2018-01-19T15:10:02.565Z,95072
2018-01-19T15:15:30.791Z,95082
2018-01-19T15:20:58.982Z,95087
2018-01-19T15:26:27.228Z,95088
2018-01-19T15:31:55.431Z,95096
2018-01-19T15:37:23.632Z,95101
2018-01-19T15:42:51.825Z,95105
2018-01-19T15:48:20.760Z,95099
2018-01-19T15:53:49.708Z,95093
2018-01-19T15:59:17.910Z,95089
2018-01-19T16:04:46.916Z,95092
2018-01-19T16:10:17.701Z,95102
2018-01-19T16:15:46.981Z,95092
2018-01-19T16:21:16.584Z,95108
2018-01-19T16:26:44.991Z,95106
2018-01-19T16:32:14.143Z,95103
2018-01-19T16:37:42.370Z,95103
2018-01-19T16:43:10.592Z,95105
2018-01-19T16:48:39.732Z,95099
2018-01-19T16:54:07.931Z,95109
2018-01-19T16:59:36.141Z,95114
2018-01-19T17:05:04.473Z,95106
2018-01-19T17:10:32.695Z,95094
2018-01-19T17:16:02.821Z,95103
2018-01-19T17:21:31.136Z,95092
2018-01-19T17:26:59.330Z,95103
2018-01-19T17:32:27.715Z,95095
2018-01-19T17:37:56.872Z,95089
2018-01-19T17:43:25.061Z,95093
2018-01-19T17:48:55.681Z,95101
2018-01-19T17:54:23.878Z,95105
2018-01-19T17:59:56.948Z,95108
2018-01-19T18:05:27.123Z,95112
2018-01-19T18:10:55.323Z,95102
2018-01-19T18:16:23.513Z,95096
2018-01-19T18:21:51.694Z,95093
2018-01-19T18:27:19.872Z,95095
2018-01-19T18:32:48.166Z,95081
2018-01-19T18:38:16.427Z,95089
2018-01-19T18:43:50.535Z,95079
2018-01-19T18:49:19.540Z,95077
2018-01-19T18:54:48.756Z,95073
2018-01-19T19:00:17.012Z,95066
2018-01-19T19:05:46.257Z,95070
2018-01-19T19:11:14.455Z,95071
2018-01-19T19:16:43.941Z,95076
2018-01-19T19:22:13.595Z,95059
2018-01-19T19:27:42.786Z,95061
2018-01-19T19:33:11.154Z,95057
2018-01-19T19:38:41.415Z,95061
2018-01-19T19:44:09.629Z,95045
2018-01-19T19:49:39.954Z,95049
2018-01-19T19:55:08.179Z,95055
2018-01-19T20:00:44.464Z,95055
2018-01-19T20:06:18.802Z,95051
2018-01-19T20:11:48.217Z,95039
2018-01-19T20:17:17.268Z,95045
2018-01-19T20:23:04.393Z,95045
2018-01-19T20:28:34.708Z,95046
2018-01-19T20:34:05.468Z,95045
2018-01-19T20:39:34.428Z,95037
2018-01-19T20:45:02.709Z,95051
2018-01-19T20:50:32.245Z,95052
2018-01-19T20:56:06.187Z,95049
2018-01-19T21:01:34.601Z,95046
2018-01-19T21:07:02.796Z,95047
2018-01-19T21:12:38.512Z,95048
2018-01-19T21:18:09.768Z,95028
2018-01-19T21:23:38.751Z,95032
2018-01-19T21:29:07.970Z,95027
2018-01-19T21:34:43.073Z,95027
2018-01-19T21:40:11.594Z,95026
2018-01-19T21:45:54.872Z,95028
2018-01-19T21:51:31.090Z,95036
2018-01-19T21:57:00.097Z,95046
2018-01-19T22:02:29.228Z,95053
2018-01-19T22:07:59.917Z,95049
2018-01-19T22:13:29.878Z,95046
2018-01-19T22:18:58.188Z,95060
2018-01-19T22:24:26.379Z,95065
2018-01-19T22:29:54.595Z,95067
2018-01-19T22:35:22.785Z,95080
2018-01-19T22:40:50.966Z,95068
2018-01-19T22:46:19.169Z,95072
2018-01-19T22:51:55.107Z,95062
2018-01-19T22:57:24.085Z,95072
2018-01-19T23:02:52.296Z,95077
2018-01-19T23:08:21.715Z,95075
2018-01-19T23:13:49.929Z,95077
2018-01-19T23:19:18.117Z,95080
2018-01-19T23:24:46.337Z,95101
2018-01-19T23:30:15.498Z,95106
2018-01-19T23:35:48.792Z,95122
2018-01-19T23:41:17.210Z,95125
2018-01-19T23:46:45.412Z,95113
2018-01-19T23:52:14.379Z,95139
2018-01-19T23:57:42.576Z,95148
